createdAt,value
2019-01-19T00:00:39.784Z,8.93
2019-01-19T00:03:16.633Z,8.93
2019-01-19T00:05:55.112Z,9.10
2019-01-19T00:08:27.737Z,8.57
2019-01-19T00:11:18.376Z,8.57
2019-01-19T00:13:56.667Z,8.50
2019-01-19T00:16:50.375Z,8.83
2019-01-19T00:19:44.994Z,8.07
2019-01-19T00:22:20.474Z,9.27
2019-01-19T00:25:06.473Z,9.43
2019-01-19T00:27:41.865Z,9.50
2019-01-19T00:30:29.592Z,9.00
2019-01-19T00:33:25.811Z,9.60
2019-01-19T00:36:01.098Z,9.83
2019-01-19T00:38:51.676Z,10.43
2019-01-19T00:41:49.974Z,10.23
2019-01-19T00:44:40.910Z,10.53
2019-01-19T00:47:34.159Z,9.80
2019-01-19T00:50:06.699Z,9.80
2019-01-19T00:52:42.303Z,10.37
2019-01-19T00:55:20.571Z,11.37
2019-01-19T00:57:53.053Z,10.30
2019-01-19T01:00:28.928Z,10.87
2019-01-19T01:03:28.607Z,10.87
2019-01-19T01:06:03.891Z,12.13
2019-01-19T01:08:46.681Z,12.13
2019-01-19T01:11:37.310Z,12.43
2019-01-19T01:14:30.715Z,13.03
2019-01-19T01:17:03.198Z,12.30
2019-01-19T01:19:38.417Z,13.10
2019-01-19T01:22:22.958Z,13.33
2019-01-19T01:25:01.441Z,14.07
2019-01-19T01:27:45.854Z,15.03
2019-01-19T01:30:39.689Z,15.67
2019-01-19T01:33:18.225Z,14.80
2019-01-19T01:36:07.231Z,16.23
2019-01-19T01:38:59.540Z,17.13
2019-01-19T01:41:49.879Z,17.23
2019-01-19T01:44:29.111Z,18.93
2019-01-19T01:47:30.299Z,18.37
2019-01-19T01:50:21.194Z,19.07
2019-01-19T01:53:10.381Z,19.17
2019-01-19T01:55:41.394Z,18.97
2019-01-19T01:58:14.109Z,19.57
2019-01-19T02:00:52.251Z,21.53
2019-01-19T02:03:39.175Z,20.37
2019-01-19T02:06:29.642Z,19.57
2019-01-19T02:09:11.709Z,20.13
2019-01-19T02:12:02.273Z,19.70
2019-01-19T02:14:37.524Z,21.17
2019-01-19T02:17:34.999Z,21.70
2019-01-19T02:20:10.646Z,20.80
2019-01-19T02:22:45.925Z,22.90
2019-01-19T02:25:27.539Z,22.43
2019-01-19T02:28:26.755Z,23.40
2019-01-19T02:31:14.349Z,22.73
2019-01-19T02:34:01.843Z,22.93
2019-01-19T02:36:40.001Z,24.30
2019-01-19T02:39:15.138Z,24.23
2019-01-19T02:41:56.547Z,25.33
2019-01-19T02:44:34.983Z,25.73
2019-01-19T02:47:09.016Z,26.97
2019-01-19T02:50:02.594Z,26.27
2019-01-19T02:52:44.120Z,26.57
2019-01-19T02:55:25.082Z,26.37
2019-01-19T02:58:13.196Z,27.37
2019-01-19T03:01:10.022Z,27.57
2019-01-19T03:03:45.454Z,25.87
2019-01-19T03:06:36.128Z,25.70
2019-01-19T03:09:17.621Z,26.47
2019-01-19T03:12:02.006Z,26.90
2019-01-19T03:14:46.912Z,27.70
2019-01-19T03:17:36.984Z,28.07
2019-01-19T03:20:29.049Z,26.93
2019-01-19T03:23:01.608Z,28.47
2019-01-19T03:25:49.212Z,27.43
2019-01-19T03:28:38.637Z,29.53
2019-01-19T03:31:26.442Z,31.03
2019-01-19T03:34:04.729Z,32.53
2019-01-19T03:36:56.645Z,33.83
2019-01-19T03:39:48.048Z,33.40
2019-01-19T03:42:40.185Z,35.57
2019-01-19T03:45:31.035Z,34.03
2019-01-19T03:48:29.538Z,33.93
2019-01-19T03:51:13.988Z,33.53
2019-01-19T03:53:52.524Z,34.57
2019-01-19T03:56:27.753Z,34.67
2019-01-19T03:59:09.174Z,32.77
2019-01-19T04:02:13.625Z,33.33
2019-01-19T04:04:51.827Z,32.70
2019-01-19T04:07:26.985Z,32.67
2019-01-19T04:10:14.436Z,30.03
2019-01-19T04:13:08.169Z,29.63
2019-01-19T04:15:59.223Z,30.33
2019-01-19T04:18:37.713Z,29.17
2019-01-19T04:21:22.368Z,29.47
2019-01-19T04:23:54.930Z,29.90
2019-01-19T04:26:27.835Z,29.53
2019-01-19T04:28:58.122Z,29.50
2019-01-19T04:31:27.548Z,30.67
2019-01-19T04:33:57.641Z,31.03
2019-01-19T04:36:27.878Z,30.30
2019-01-19T04:38:57.819Z,27.73
2019-01-19T04:41:27.217Z,27.70
2019-01-19T04:43:56.759Z,27.90
2019-01-19T04:46:26.272Z,28.03
2019-01-19T04:48:55.751Z,27.67
2019-01-19T04:51:26.687Z,29.20
2019-01-19T04:53:56.153Z,27.63
2019-01-19T04:56:25.550Z,26.77
2019-01-19T04:58:54.953Z,27.77
2019-01-19T05:01:24.499Z,28.40
2019-01-19T05:03:54.009Z,27.90
2019-01-19T05:06:30.276Z,27.90
2019-01-19T05:08:56.263Z,27.37
2019-01-19T05:11:25.734Z,27.10
2019-01-19T05:13:55.101Z,28.10
2019-01-19T05:16:24.574Z,27.07
2019-01-19T05:18:54.064Z,28.30
2019-01-19T05:21:24.066Z,28.67
2019-01-19T05:23:54.419Z,28.47
2019-01-19T05:26:23.897Z,28.23
2019-01-19T05:28:53.389Z,29.60
2019-01-19T05:31:23.025Z,28.90
2019-01-19T05:33:52.500Z,28.47
2019-01-19T05:36:22.118Z,29.13
2019-01-19T05:38:52.048Z,28.30
2019-01-19T05:41:21.611Z,29.30
2019-01-19T05:43:51.751Z,29.53
2019-01-19T05:46:21.498Z,29.53
2019-01-19T05:48:51.221Z,29.43
2019-01-19T05:51:20.634Z,29.63
2019-01-19T05:53:50.117Z,29.57
2019-01-19T05:56:19.523Z,28.20
2019-01-19T05:58:49.929Z,29.70
2019-01-19T06:01:19.497Z,30.17
2019-01-19T06:03:50.620Z,30.93
2019-01-19T06:06:20.412Z,30.50
2019-01-19T06:08:49.876Z,31.20
2019-01-19T06:11:19.362Z,31.23
2019-01-19T06:13:50.340Z,30.20
2019-01-19T06:16:19.813Z,29.70
2019-01-19T06:18:50.010Z,31.23
2019-01-19T06:21:21.397Z,29.83
2019-01-19T06:23:50.863Z,31.13
2019-01-19T06:26:20.659Z,29.93
2019-01-19T06:28:50.051Z,29.70
2019-01-19T06:31:19.886Z,31.13
2019-01-19T06:33:51.122Z,31.67
2019-01-19T06:36:20.610Z,32.23
2019-01-19T06:38:50.160Z,31.17
2019-01-19T06:41:19.628Z,30.43
2019-01-19T06:43:50.699Z,31.57
2019-01-19T06:46:20.103Z,30.87
2019-01-19T06:48:49.572Z,31.97
2019-01-19T06:51:18.976Z,30.63
2019-01-19T06:53:48.776Z,30.90
2019-01-19T06:56:19.185Z,30.00
2019-01-19T06:58:48.635Z,31.10
2019-01-19T07:01:18.103Z,31.10
2019-01-19T07:03:47.474Z,29.00
2019-01-19T07:06:16.908Z,30.67
2019-01-19T07:08:46.369Z,31.77
2019-01-19T07:11:17.487Z,30.97
2019-01-19T07:13:47.004Z,32.20
2019-01-19T07:16:16.983Z,30.20
2019-01-19T07:18:46.515Z,30.63
2019-01-19T07:21:15.917Z,31.60
2019-01-19T07:23:45.308Z,30.37
2019-01-19T07:26:14.794Z,31.53
2019-01-19T07:28:44.237Z,29.43
2019-01-19T07:31:13.646Z,28.93
2019-01-19T07:33:43.019Z,29.70
2019-01-19T07:36:12.573Z,29.07
2019-01-19T07:38:42.080Z,29.77
2019-01-19T07:41:11.564Z,29.23
2019-01-19T07:43:41.196Z,29.77
2019-01-19T07:46:12.166Z,30.07
2019-01-19T07:48:41.672Z,31.47
2019-01-19T07:51:11.637Z,30.20
2019-01-19T07:53:41.103Z,30.73
2019-01-19T07:56:10.647Z,30.10
2019-01-19T07:58:40.047Z,29.27
2019-01-19T08:01:09.697Z,29.93
2019-01-19T08:03:39.159Z,30.90
2019-01-19T08:06:08.580Z,30.43
2019-01-19T08:08:38.440Z,29.63
2019-01-19T08:11:07.846Z,30.40
2019-01-19T08:13:37.329Z,29.33
2019-01-19T08:16:06.877Z,30.60
2019-01-19T08:18:36.518Z,30.47
2019-01-19T08:21:06.064Z,29.67
2019-01-19T08:23:35.642Z,29.87
2019-01-19T08:26:05.256Z,29.33
2019-01-19T08:28:34.861Z,29.77
2019-01-19T08:31:04.607Z,29.93
2019-01-19T08:33:34.183Z,32.27
2019-01-19T08:36:05.633Z,31.67
2019-01-19T08:38:36.658Z,31.23
2019-01-19T08:41:06.218Z,32.40
2019-01-19T08:43:37.296Z,30.53
2019-01-19T08:46:06.856Z,31.27
2019-01-19T08:48:37.571Z,32.53
2019-01-19T08:51:06.979Z,29.57
2019-01-19T08:53:36.438Z,30.17
2019-01-19T08:56:07.652Z,31.17
2019-01-19T08:58:37.198Z,30.20
2019-01-19T09:01:06.788Z,29.67
2019-01-19T09:03:36.313Z,29.07
2019-01-19T09:06:06.019Z,29.60
2019-01-19T09:08:35.540Z,30.13
2019-01-19T09:11:05.134Z,28.97
2019-01-19T09:13:34.658Z,30.10
2019-01-19T09:16:04.387Z,29.57
2019-01-19T09:18:34.446Z,29.67
2019-01-19T09:21:04.339Z,29.30
2019-01-19T09:23:35.348Z,31.00
2019-01-19T09:26:04.885Z,29.77
2019-01-19T09:28:34.252Z,28.17
2019-01-19T09:31:03.797Z,27.93
2019-01-19T09:33:33.405Z,28.37
2019-01-19T09:36:02.968Z,28.47
2019-01-19T09:38:32.350Z,28.07
2019-01-19T09:41:01.921Z,28.47
2019-01-19T09:43:31.530Z,27.33
2019-01-19T09:46:00.997Z,26.83
2019-01-19T09:48:30.625Z,26.10
2019-01-19T09:51:00.248Z,27.30
2019-01-19T09:53:29.618Z,25.37
2019-01-19T09:55:59.101Z,26.30
2019-01-19T09:58:28.609Z,26.43
2019-01-19T10:00:58.088Z,25.43
2019-01-19T10:03:27.454Z,25.17
2019-01-19T10:05:56.853Z,26.17
2019-01-19T10:08:26.360Z,24.23
2019-01-19T10:10:55.918Z,27.40
2019-01-19T10:13:25.355Z,24.73
2019-01-19T10:15:55.005Z,24.20
2019-01-19T10:18:24.698Z,24.87
2019-01-19T10:20:54.385Z,24.67
2019-01-19T10:23:23.893Z,24.60
2019-01-19T10:25:53.511Z,25.40
2019-01-19T10:28:24.491Z,24.23
2019-01-19T10:30:53.981Z,25.00
2019-01-19T10:33:23.500Z,25.53
2019-01-19T10:35:53.051Z,25.27
2019-01-19T10:38:22.605Z,24.07
2019-01-19T10:40:52.135Z,23.97
2019-01-19T10:43:21.801Z,24.70
2019-01-19T10:45:51.168Z,23.77
2019-01-19T10:48:20.735Z,23.87
2019-01-19T10:50:50.347Z,24.57
2019-01-19T10:53:19.791Z,26.03
2019-01-19T10:55:49.401Z,23.70
2019-01-19T10:58:18.936Z,23.53
2019-01-19T11:00:48.507Z,23.37
2019-01-19T11:03:17.972Z,23.07
2019-01-19T11:05:47.599Z,23.17
2019-01-19T11:08:17.571Z,23.67
2019-01-19T11:10:47.037Z,21.70
2019-01-19T11:13:16.504Z,21.63
2019-01-19T11:15:45.947Z,21.27
2019-01-19T11:18:15.630Z,20.87
2019-01-19T11:20:45.167Z,19.20
2019-01-19T11:23:14.562Z,21.40
2019-01-19T11:25:44.064Z,20.03
2019-01-19T11:28:13.558Z,20.80
2019-01-19T11:30:43.103Z,21.10
2019-01-19T11:33:12.720Z,20.13
2019-01-19T11:35:42.259Z,20.03
2019-01-19T11:38:12.345Z,18.57
2019-01-19T11:40:41.941Z,18.87
2019-01-19T11:43:11.539Z,18.30
2019-01-19T11:45:41.049Z,17.60
2019-01-19T11:48:10.591Z,17.53
2019-01-19T11:50:40.178Z,18.23
2019-01-19T11:53:10.267Z,17.93
2019-01-19T11:55:39.874Z,17.80
2019-01-19T11:58:09.422Z,17.40
2019-01-19T12:00:39.971Z,16.73
2019-01-19T12:03:10.497Z,16.80
2019-01-19T12:05:41.666Z,16.67
2019-01-19T12:08:19.491Z,17.70
2019-01-19T12:10:46.007Z,17.57
2019-01-19T12:13:15.474Z,16.57
2019-01-19T12:15:44.907Z,15.83
2019-01-19T12:18:14.315Z,17.03
2019-01-19T12:20:44.050Z,16.33
2019-01-19T12:23:13.532Z,16.37
2019-01-19T12:25:42.997Z,15.83
2019-01-19T12:28:12.470Z,16.33
2019-01-19T12:30:43.658Z,15.63
2019-01-19T12:33:13.235Z,15.03
2019-01-19T12:35:42.708Z,15.50
2019-01-19T12:38:12.203Z,14.37
2019-01-19T12:40:41.675Z,14.27
2019-01-19T12:43:14.341Z,13.27
2019-01-19T12:45:52.579Z,14.10
2019-01-19T12:48:22.081Z,13.57
2019-01-19T12:50:51.620Z,13.87
2019-01-19T12:53:21.225Z,14.10
2019-01-19T12:55:50.953Z,13.03
2019-01-19T12:58:20.623Z,13.43
2019-01-19T13:00:51.870Z,13.43
2019-01-19T13:03:21.442Z,13.07
2019-01-19T13:06:11.632Z,13.10
2019-01-19T13:08:41.001Z,12.63
2019-01-19T13:11:22.600Z,13.10
2019-01-19T13:13:53.779Z,12.80
2019-01-19T13:16:41.349Z,12.73
2019-01-19T13:19:19.203Z,12.23
2019-01-19T13:22:14.426Z,12.60
2019-01-19T13:24:49.813Z,12.43
2019-01-19T13:27:46.179Z,12.10
2019-01-19T13:30:24.711Z,12.77
2019-01-19T13:33:03.298Z,12.60
2019-01-19T13:35:52.611Z,12.07
2019-01-19T13:38:33.960Z,11.73
2019-01-19T13:41:30.765Z,11.87
2019-01-19T13:44:12.267Z,12.10
2019-01-19T13:47:03.284Z,11.63
2019-01-19T13:50:09.271Z,11.17
2019-01-19T13:53:10.371Z,11.93
2019-01-19T13:55:59.413Z,10.53
2019-01-19T13:58:31.972Z,11.13
2019-01-19T14:01:22.562Z,10.87
2019-01-19T14:04:00.652Z,11.67
2019-01-19T14:06:39.004Z,13.30
2019-01-19T14:09:20.623Z,12.07
2019-01-19T14:12:02.175Z,11.80
2019-01-19T14:14:43.663Z,11.23
2019-01-19T14:17:34.163Z,11.80
2019-01-19T14:20:09.478Z,11.60
2019-01-19T14:23:02.026Z,11.60
2019-01-19T14:25:34.831Z,11.93
2019-01-19T14:28:24.727Z,12.27
2019-01-19T14:30:57.214Z,11.63
2019-01-19T14:33:46.442Z,11.37
2019-01-19T14:36:44.266Z,11.47
2019-01-19T14:39:37.859Z,11.13
2019-01-19T14:42:28.519Z,11.63
2019-01-19T14:45:09.579Z,14.90
2019-01-19T14:47:51.401Z,15.03
2019-01-19T14:50:26.637Z,13.07
2019-01-19T14:53:08.333Z,14.07
2019-01-19T14:55:49.692Z,13.27
2019-01-19T14:58:43.540Z,13.07
2019-01-19T15:01:16.073Z,12.67
2019-01-19T15:03:51.156Z,13.67
2019-01-19T15:06:32.506Z,13.03
2019-01-19T15:09:20.179Z,13.70
2019-01-19T15:12:08.743Z,12.20
2019-01-19T15:14:47.298Z,13.40
2019-01-19T15:17:32.899Z,13.63
2019-01-19T15:20:11.414Z,14.57
2019-01-19T15:23:00.259Z,13.93
2019-01-19T15:25:38.590Z,14.87
2019-01-19T15:28:21.595Z,14.70
2019-01-19T15:30:59.971Z,14.83
2019-01-19T15:33:32.516Z,15.70
2019-01-19T15:36:07.822Z,15.50
2019-01-19T15:38:45.905Z,16.50
2019-01-19T15:41:24.005Z,15.27
2019-01-19T15:44:16.240Z,14.77
2019-01-19T15:46:51.597Z,15.60
2019-01-19T15:49:40.456Z,14.00
2019-01-19T15:52:24.823Z,15.03
2019-01-19T15:55:12.519Z,16.13
2019-01-19T15:57:48.130Z,15.10
2019-01-19T16:00:38.703Z,14.67
2019-01-19T16:03:15.525Z,16.20
2019-01-19T16:06:11.297Z,15.37
2019-01-19T16:09:09.615Z,15.77
2019-01-19T16:11:47.855Z,15.53
2019-01-19T16:14:39.622Z,15.47
2019-01-19T16:17:15.119Z,14.97
2019-01-19T16:19:50.382Z,14.90
2019-01-19T16:22:35.776Z,14.93
2019-01-19T16:25:12.660Z,15.60
2019-01-19T16:27:45.239Z,14.93
2019-01-19T16:30:32.620Z,17.57
2019-01-19T16:33:17.045Z,14.77
2019-01-19T16:36:11.998Z,15.77
2019-01-19T16:38:47.358Z,15.30
2019-01-19T16:41:25.791Z,14.03
2019-01-19T16:44:06.900Z,15.30
2019-01-19T16:46:58.421Z,14.93
2019-01-19T16:49:32.398Z,14.63
2019-01-19T16:52:22.998Z,15.50
2019-01-19T16:55:01.312Z,15.90
2019-01-19T16:57:42.884Z,17.87
2019-01-19T17:00:21.147Z,18.27
2019-01-19T17:02:56.558Z,19.17
2019-01-19T17:05:36.375Z,18.03
2019-01-19T17:08:27.404Z,16.53
2019-01-19T17:11:23.984Z,15.90
2019-01-19T17:14:05.061Z,15.43
2019-01-19T17:16:46.728Z,15.70
2019-01-19T17:19:25.190Z,15.80
2019-01-19T17:22:00.856Z,16.53
2019-01-19T17:24:54.731Z,15.60
2019-01-19T17:27:43.938Z,15.93
2019-01-19T17:30:38.248Z,16.47
2019-01-19T17:33:13.525Z,16.10
2019-01-19T17:35:54.823Z,15.47
2019-01-19T17:38:46.706Z,15.10
2019-01-19T17:41:37.032Z,14.67
2019-01-19T17:44:15.181Z,14.00
2019-01-19T17:47:18.261Z,13.97
2019-01-19T17:49:50.827Z,14.03
2019-01-19T17:52:29.582Z,12.87
2019-01-19T17:55:26.502Z,13.57
2019-01-19T17:58:08.720Z,13.47
2019-01-19T18:00:50.380Z,13.40
2019-01-19T18:03:44.157Z,13.47
2019-01-19T18:06:28.550Z,14.60
2019-01-19T18:09:13.320Z,12.87
2019-01-19T18:11:57.683Z,12.43
2019-01-19T18:14:39.207Z,13.30
2019-01-19T18:17:33.607Z,12.83
2019-01-19T18:20:28.097Z,16.03
2019-01-19T18:23:21.390Z,18.67
2019-01-19T18:25:56.538Z,14.30
2019-01-19T18:28:32.289Z,13.23
2019-01-19T18:31:24.403Z,14.00
2019-01-19T18:33:56.965Z,16.40
2019-01-19T18:36:34.997Z,14.67
2019-01-19T18:39:24.918Z,13.57
2019-01-19T18:42:18.712Z,14.43
2019-01-19T18:45:06.703Z,13.90
2019-01-19T18:48:00.238Z,14.47
2019-01-19T18:50:49.693Z,14.07
2019-01-19T18:53:27.923Z,14.20
2019-01-19T18:56:16.821Z,13.50
2019-01-19T18:58:51.832Z,14.00
2019-01-19T19:01:27.469Z,14.00
2019-01-19T19:04:16.346Z,14.17
2019-01-19T19:07:05.128Z,13.87
2019-01-19T19:09:52.464Z,13.90
2019-01-19T19:12:27.549Z,14.30
2019-01-19T19:15:08.782Z,15.00
2019-01-19T19:18:02.024Z,15.50
2019-01-19T19:20:34.572Z,15.57
2019-01-19T19:23:25.439Z,17.90
2019-01-19T19:26:13.106Z,15.23
2019-01-19T19:28:54.594Z,15.07
2019-01-19T19:31:36.074Z,15.93
2019-01-19T19:34:38.867Z,14.23
2019-01-19T19:37:31.922Z,15.20
2019-01-19T19:40:25.503Z,14.70
2019-01-19T19:43:00.650Z,14.90
2019-01-19T19:45:47.842Z,15.33
2019-01-19T19:48:23.032Z,15.33
2019-01-19T19:51:18.360Z,17.47
2019-01-19T19:53:47.808Z,17.17
2019-01-19T19:56:16.216Z,16.90
2019-01-19T19:58:45.782Z,21.67
2019-01-19T20:01:15.445Z,18.77
2019-01-19T20:03:44.962Z,13.40
2019-01-19T20:06:14.387Z,12.10
2019-01-19T20:08:43.835Z,11.67
2019-01-19T20:11:13.253Z,10.63
2019-01-19T20:13:42.766Z,9.37
2019-01-19T20:16:12.266Z,9.30
2019-01-19T20:18:41.811Z,10.07
2019-01-19T20:21:11.376Z,9.53
2019-01-19T20:23:40.984Z,9.00
2019-01-19T20:26:11.957Z,8.73
2019-01-19T20:28:41.420Z,9.33
2019-01-19T20:31:10.864Z,8.20
2019-01-19T20:33:40.291Z,8.10
2019-01-19T20:36:11.439Z,8.07
2019-01-19T20:38:40.865Z,7.90
2019-01-19T20:41:10.367Z,7.97
2019-01-19T20:43:39.838Z,7.23
2019-01-19T20:46:09.348Z,7.63
2019-01-19T20:48:39.454Z,7.97
2019-01-19T20:51:09.127Z,7.97
2019-01-19T20:53:38.799Z,7.47
2019-01-19T20:56:08.299Z,8.50
2019-01-19T20:58:37.860Z,9.20
2019-01-19T21:01:07.300Z,8.20
2019-01-19T21:03:36.713Z,8.63
2019-01-19T21:06:06.215Z,8.80
2019-01-19T21:08:35.614Z,8.80
2019-01-19T21:11:05.291Z,8.67
2019-01-19T21:13:36.524Z,9.37
2019-01-19T21:16:06.189Z,8.50
2019-01-19T21:18:35.703Z,8.70
2019-01-19T21:21:05.207Z,9.00
2019-01-19T21:23:34.674Z,9.13
2019-01-19T21:26:04.190Z,8.80
2019-01-19T21:28:33.584Z,9.40
2019-01-19T21:31:03.076Z,9.73
2019-01-19T21:33:34.313Z,9.20
2019-01-19T21:36:04.149Z,8.93
2019-01-19T21:38:33.559Z,9.20
2019-01-19T21:41:02.920Z,9.13
2019-01-19T21:43:32.325Z,8.40
2019-01-19T21:46:01.900Z,8.83
2019-01-19T21:48:31.300Z,8.83
2019-01-19T21:51:00.695Z,9.63
2019-01-19T21:53:30.167Z,9.63
2019-01-19T21:55:59.663Z,12.83
2019-01-19T21:58:29.380Z,12.20
2019-01-19T22:01:00.424Z,14.30
2019-01-19T22:03:29.819Z,12.77
2019-01-19T22:05:59.285Z,10.97
2019-01-19T22:08:28.694Z,10.70
2019-01-19T22:10:58.286Z,10.53
2019-01-19T22:13:27.760Z,8.93
2019-01-19T22:15:57.437Z,10.10
2019-01-19T22:18:26.989Z,9.10
2019-01-19T22:20:56.372Z,9.17
2019-01-19T22:23:25.875Z,9.47
2019-01-19T22:25:55.318Z,9.37
2019-01-19T22:28:24.788Z,8.77
2019-01-19T22:30:54.160Z,8.83
2019-01-19T22:33:24.227Z,8.77
2019-01-19T22:35:53.597Z,9.57
2019-01-19T22:38:23.130Z,8.87
2019-01-19T22:40:53.660Z,9.17
2019-01-19T22:43:23.789Z,10.00
2019-01-19T22:45:53.214Z,9.80
2019-01-19T22:48:22.735Z,9.47
2019-01-19T22:50:52.300Z,9.03
2019-01-19T22:53:21.946Z,9.63
2019-01-19T22:55:51.377Z,9.77
2019-01-19T22:58:20.770Z,9.13
2019-01-19T23:01:03.996Z,9.70
2019-01-19T23:03:33.976Z,10.17
2019-01-19T23:06:03.483Z,10.13
2019-01-19T23:08:32.947Z,10.03
2019-01-19T23:11:02.559Z,9.77
2019-01-19T23:13:33.864Z,10.13
2019-01-19T23:16:03.362Z,9.90
2019-01-19T23:18:33.309Z,9.87
2019-01-19T23:21:02.692Z,10.20
2019-01-19T23:23:32.170Z,9.53
2019-01-19T23:26:02.605Z,9.17
2019-01-19T23:28:33.118Z,9.50
2019-01-19T23:31:02.476Z,9.77
2019-01-19T23:33:31.949Z,9.40
2019-01-19T23:36:01.529Z,8.17
2019-01-19T23:38:31.049Z,9.33
2019-01-19T23:41:00.412Z,9.27
2019-01-19T23:43:29.883Z,9.13
2019-01-19T23:45:59.363Z,8.97
2019-01-19T23:48:28.993Z,9.00
2019-01-19T23:50:58.355Z,8.73
2019-01-19T23:53:27.774Z,9.73
2019-01-19T23:55:57.297Z,9.10
2019-01-19T23:58:26.851Z,9.30
